createdAt,value
2023-01-08T00:00:40.856Z,0.00
2023-01-08T00:01:40.831Z,0.00
2023-01-08T00:02:40.856Z,0.00
2023-01-08T00:03:40.907Z,0.00
2023-01-08T00:04:40.845Z,0.00
2023-01-08T00:05:40.733Z,0.00
2023-01-08T00:06:40.683Z,0.00
2023-01-08T00:07:40.749Z,0.00
2023-01-08T00:08:40.689Z,0.00
2023-01-08T00:09:40.702Z,0.00
2023-01-08T00:10:40.694Z,0.00
2023-01-08T00:11:40.672Z,0.00
2023-01-08T00:12:40.641Z,0.00
2023-01-08T00:13:40.654Z,0.00
2023-01-08T00:14:40.587Z,0.00
2023-01-08T00:15:40.610Z,0.00
2023-01-08T00:16:40.667Z,0.00
2023-01-08T00:17:40.594Z,0.00
2023-01-08T00:18:40.551Z,0.00
2023-01-08T00:19:40.528Z,0.00
2023-01-08T00:20:40.533Z,0.00
2023-01-08T00:21:40.516Z,0.00
2023-01-08T00:22:40.520Z,0.00
2023-01-08T00:23:40.523Z,0.00
2023-01-08T00:24:40.464Z,0.00
2023-01-08T00:25:40.463Z,0.00
2023-01-08T00:26:40.409Z,0.00
2023-01-08T00:27:40.461Z,0.00
2023-01-08T00:28:40.451Z,0.00
2023-01-08T00:29:40.436Z,0.00
2023-01-08T00:30:40.429Z,0.00
2023-01-08T00:31:40.382Z,0.00
2023-01-08T00:32:40.356Z,0.00
2023-01-08T00:33:40.359Z,0.00
2023-01-08T00:34:40.420Z,0.00
2023-01-08T00:35:40.355Z,0.00
2023-01-08T00:36:40.285Z,0.00
2023-01-08T00:37:40.318Z,0.00
2023-01-08T00:38:40.273Z,0.00
2023-01-08T00:39:40.269Z,0.00
2023-01-08T00:40:40.397Z,0.00
2023-01-08T00:41:40.275Z,0.00
2023-01-08T00:42:40.230Z,0.00
2023-01-08T00:43:40.254Z,0.00
2023-01-08T00:44:40.211Z,0.00
2023-01-08T00:45:40.205Z,0.00
2023-01-08T00:46:40.255Z,0.00
2023-01-08T00:47:40.171Z,0.00
2023-01-08T00:48:40.125Z,0.00
2023-01-08T00:49:40.154Z,0.00
2023-01-08T00:50:40.112Z,0.00
2023-01-08T00:51:40.111Z,0.00
2023-01-08T00:52:40.124Z,0.00
2023-01-08T00:53:40.059Z,0.00
2023-01-08T00:54:40.058Z,0.00
2023-01-08T00:55:40.015Z,0.00
2023-01-08T00:56:40.020Z,0.00
2023-01-08T00:57:40.053Z,0.00
2023-01-08T00:58:40.090Z,0.00
2023-01-08T00:59:39.989Z,0.00
2023-01-08T01:00:40.005Z,0.00
2023-01-08T01:01:40.021Z,0.00
2023-01-08T01:02:40.012Z,0.00
2023-01-08T01:03:39.934Z,0.00
2023-01-08T01:04:39.945Z,0.00
2023-01-08T01:05:39.932Z,0.00
2023-01-08T01:06:39.919Z,0.00
2023-01-08T01:07:39.847Z,0.00
2023-01-08T01:08:39.896Z,0.00
2023-01-08T01:09:39.831Z,0.00
2023-01-08T01:10:39.870Z,0.00
2023-01-08T01:11:39.807Z,0.00
2023-01-08T01:12:39.824Z,0.00
2023-01-08T01:13:39.804Z,0.00
2023-01-08T01:14:39.799Z,0.00
2023-01-08T01:15:39.736Z,0.00
2023-01-08T01:16:40.031Z,0.00
2023-01-08T01:17:39.755Z,0.00
2023-01-08T01:18:39.742Z,0.00
2023-01-08T01:19:39.745Z,0.00
2023-01-08T01:20:39.825Z,0.00
2023-01-08T01:21:39.714Z,0.00
2023-01-08T01:22:39.834Z,0.00
2023-01-08T01:23:39.623Z,0.00
2023-01-08T01:24:39.672Z,0.00
2023-01-08T01:25:39.625Z,0.00
2023-01-08T01:26:39.624Z,0.00
2023-01-08T01:27:39.611Z,0.00
2023-01-08T01:28:39.634Z,0.00
2023-01-08T01:29:39.536Z,0.00
2023-01-08T01:30:39.686Z,0.00
2023-01-08T01:31:39.555Z,0.00
2023-01-08T01:32:39.550Z,0.00
2023-01-08T01:33:39.549Z,0.00
2023-01-08T01:34:39.563Z,0.00
2023-01-08T01:35:40.242Z,0.00
2023-01-08T01:36:39.504Z,0.00
2023-01-08T01:37:39.448Z,0.00
2023-01-08T01:38:39.457Z,0.00
2023-01-08T01:39:39.451Z,0.00
2023-01-08T01:40:39.550Z,0.00
2023-01-08T01:41:39.427Z,0.00
2023-01-08T01:42:39.428Z,0.00
2023-01-08T01:43:39.365Z,0.00
2023-01-08T01:44:39.409Z,0.00
2023-01-08T01:45:39.380Z,0.00
2023-01-08T01:46:39.442Z,0.00
2023-01-08T01:47:39.350Z,0.00
2023-01-08T01:48:39.339Z,0.00
2023-01-08T01:49:39.267Z,0.00
2023-01-08T01:50:39.280Z,0.00
2023-01-08T01:51:39.281Z,0.00
2023-01-08T01:52:39.292Z,0.00
2023-01-08T01:53:39.265Z,0.00
2023-01-08T01:54:39.251Z,0.00
2023-01-08T01:55:39.185Z,0.00
2023-01-08T01:56:39.249Z,0.00
2023-01-08T01:57:39.185Z,0.00
2023-01-08T01:58:39.313Z,0.00
2023-01-08T01:59:39.173Z,0.00
2023-01-08T02:00:39.184Z,0.00
2023-01-08T02:01:39.208Z,0.00
2023-01-08T02:02:39.112Z,0.00
2023-01-08T02:03:39.188Z,0.00
2023-01-08T02:04:39.214Z,0.00
2023-01-08T02:05:39.071Z,0.00
2023-01-08T02:06:39.106Z,0.00
2023-01-08T02:07:39.029Z,0.00
2023-01-08T02:08:39.098Z,0.00
2023-01-08T02:09:39.007Z,0.00
2023-01-08T02:10:39.132Z,0.00
2023-01-08T02:11:39.006Z,0.00
2023-01-08T02:12:39.010Z,0.00
2023-01-08T02:13:38.979Z,0.00
2023-01-08T02:14:38.994Z,0.00
2023-01-08T02:15:38.923Z,0.00
2023-01-08T02:16:38.972Z,0.00
2023-01-08T02:17:38.931Z,0.00
2023-01-08T02:18:38.885Z,0.00
2023-01-08T02:19:38.940Z,0.00
2023-01-08T02:20:38.854Z,0.00
2023-01-08T02:21:38.894Z,0.00
2023-01-08T02:22:38.990Z,0.00
2023-01-08T02:23:38.844Z,0.00
2023-01-08T02:24:38.858Z,0.00
2023-01-08T02:25:38.825Z,0.00
2023-01-08T02:26:38.793Z,0.00
2023-01-08T02:27:38.810Z,0.00
2023-01-08T02:28:38.835Z,0.00
2023-01-08T02:29:38.788Z,0.00
2023-01-08T02:30:38.776Z,0.00
2023-01-08T02:31:38.727Z,0.00
2023-01-08T02:32:38.699Z,0.00
2023-01-08T02:33:38.733Z,0.00
2023-01-08T02:34:38.728Z,0.00
2023-01-08T02:35:38.689Z,0.00
2023-01-08T02:36:38.682Z,0.00
2023-01-08T02:37:38.655Z,0.00
2023-01-08T02:38:38.617Z,0.00
2023-01-08T02:39:38.635Z,0.00
2023-01-08T02:40:38.687Z,0.00
2023-01-08T02:41:38.616Z,0.00
2023-01-08T02:42:38.565Z,0.00
2023-01-08T02:43:38.561Z,0.00
2023-01-08T02:44:38.550Z,0.00
2023-01-08T02:45:38.601Z,0.00
2023-01-08T02:46:38.568Z,0.00
2023-01-08T02:47:38.533Z,0.00
2023-01-08T02:48:38.488Z,0.00
2023-01-08T02:49:38.481Z,0.00
2023-01-08T02:50:38.469Z,0.00
2023-01-08T02:51:38.490Z,0.00
2023-01-08T02:52:38.441Z,0.00
2023-01-08T02:53:40.595Z,0.00
2023-01-08T02:54:38.401Z,0.00
2023-01-08T02:55:38.395Z,0.00
2023-01-08T02:56:38.402Z,0.00
2023-01-08T02:57:38.377Z,0.00
2023-01-08T02:58:38.404Z,0.00
2023-01-08T02:59:38.361Z,0.00
2023-01-08T03:00:38.305Z,0.00
2023-01-08T03:01:38.504Z,0.00
2023-01-08T03:02:38.347Z,0.00
2023-01-08T03:03:38.277Z,0.00
2023-01-08T03:04:38.422Z,0.00
2023-01-08T03:05:38.294Z,0.00
2023-01-08T03:06:38.243Z,0.00
2023-01-08T03:07:38.224Z,0.00
2023-01-08T03:08:38.231Z,0.00
2023-01-08T03:09:38.207Z,0.00
2023-01-08T03:10:38.188Z,0.00
2023-01-08T03:11:38.207Z,0.00
2023-01-08T03:12:38.127Z,0.00
2023-01-08T03:13:38.167Z,0.00
2023-01-08T03:14:38.136Z,0.00
2023-01-08T03:15:38.123Z,0.00
2023-01-08T03:16:38.196Z,0.00
2023-01-08T03:17:38.120Z,0.00
2023-01-08T03:18:38.050Z,0.00
2023-01-08T03:19:38.111Z,0.00
2023-01-08T03:20:38.032Z,0.00
2023-01-08T03:21:38.068Z,0.00
2023-01-08T03:22:38.178Z,0.00
2023-01-08T03:23:38.015Z,0.00
2023-01-08T03:24:38.001Z,0.00
2023-01-08T03:25:37.992Z,0.00
2023-01-08T03:26:37.938Z,0.00
2023-01-08T03:27:37.991Z,0.00
2023-01-08T03:28:37.975Z,0.00
2023-01-08T03:29:37.965Z,0.00
2023-01-08T03:30:37.945Z,0.00
2023-01-08T03:31:37.914Z,0.00
2023-01-08T03:32:37.902Z,0.00
2023-01-08T03:33:37.895Z,0.00
2023-01-08T03:34:37.894Z,0.00
2023-01-08T03:35:37.873Z,0.00
2023-01-08T03:36:37.873Z,0.00
2023-01-08T03:37:37.832Z,0.00
2023-01-08T03:38:37.787Z,0.00
2023-01-08T03:39:37.842Z,0.00
2023-01-08T03:40:37.787Z,0.00
2023-01-08T03:41:37.787Z,0.00
2023-01-08T03:42:37.755Z,0.00
2023-01-08T03:43:38.459Z,0.00
2023-01-08T03:44:37.738Z,0.00
2023-01-08T03:45:37.740Z,0.00
2023-01-08T03:46:37.804Z,0.00
2023-01-08T03:47:37.713Z,0.00
2023-01-08T03:48:37.657Z,0.00
2023-01-08T03:49:37.689Z,0.00
2023-01-08T03:50:37.661Z,0.00
2023-01-08T03:51:37.629Z,0.00
2023-01-08T03:52:37.625Z,0.00
2023-01-08T03:53:37.639Z,0.00
2023-01-08T03:54:37.607Z,0.00
2023-01-08T03:55:37.587Z,0.00
2023-01-08T03:56:37.561Z,0.00
2023-01-08T03:57:37.567Z,0.00
2023-01-08T03:58:37.547Z,0.00
2023-01-08T03:59:37.552Z,0.00
2023-01-08T04:00:37.506Z,0.00
2023-01-08T04:01:37.676Z,0.00
2023-01-08T04:02:37.522Z,0.00
2023-01-08T04:03:37.482Z,0.00
2023-01-08T04:04:37.600Z,0.00
2023-01-08T04:05:37.434Z,0.00
2023-01-08T04:06:37.418Z,0.00
2023-01-08T04:07:37.464Z,0.00
2023-01-08T04:08:37.406Z,0.00
2023-01-08T04:09:37.417Z,0.00
2023-01-08T04:10:37.398Z,0.00
2023-01-08T04:11:37.394Z,0.00
2023-01-08T04:12:37.351Z,0.00
2023-01-08T04:13:37.388Z,0.00
2023-01-08T04:14:37.316Z,0.00
2023-01-08T04:15:37.334Z,0.00
2023-01-08T04:16:37.342Z,0.00
2023-01-08T04:17:37.290Z,0.00
2023-01-08T04:18:37.250Z,0.00
2023-01-08T04:19:37.288Z,0.00
2023-01-08T04:20:37.217Z,0.00
2023-01-08T04:21:37.262Z,0.00
2023-01-08T04:22:37.262Z,0.00
2023-01-08T04:23:37.198Z,0.00
2023-01-08T04:24:37.187Z,0.00
2023-01-08T04:25:37.173Z,0.00
2023-01-08T04:26:37.135Z,0.00
2023-01-08T04:27:37.171Z,0.00
2023-01-08T04:28:37.223Z,0.00
2023-01-08T04:29:37.131Z,0.00
2023-01-08T04:30:37.132Z,0.00
2023-01-08T04:31:37.096Z,0.00
2023-01-08T04:32:37.072Z,0.00
2023-01-08T04:33:37.090Z,0.00
2023-01-08T04:34:37.180Z,0.00
2023-01-08T04:35:37.071Z,0.00
2023-01-08T04:36:36.987Z,0.00
2023-01-08T04:37:37.032Z,0.00
2023-01-08T04:38:37.014Z,0.00
2023-01-08T04:39:36.984Z,0.00
2023-01-08T04:40:37.015Z,0.00
2023-01-08T04:41:36.977Z,0.00
2023-01-08T04:42:36.925Z,0.00
2023-01-08T04:43:36.914Z,0.00
2023-01-08T04:44:36.907Z,0.00
2023-01-08T04:45:36.926Z,0.00
2023-01-08T04:46:36.963Z,0.00
2023-01-08T04:47:36.900Z,0.00
2023-01-08T04:48:36.827Z,0.00
2023-01-08T04:49:36.856Z,0.00
2023-01-08T04:50:36.836Z,0.00
2023-01-08T04:51:36.819Z,0.00
2023-01-08T04:52:36.842Z,0.00
2023-01-08T04:53:36.792Z,0.00
2023-01-08T04:54:36.732Z,0.00
2023-01-08T04:55:37.941Z,0.00
2023-01-08T04:56:36.747Z,0.00
2023-01-08T04:57:36.733Z,0.00
2023-01-08T04:58:36.730Z,0.00
2023-01-08T04:59:36.739Z,0.00
2023-01-08T05:00:36.681Z,0.00
2023-01-08T05:01:36.855Z,0.00
2023-01-08T05:02:36.961Z,0.00
2023-01-08T05:03:36.665Z,0.00
2023-01-08T05:04:36.673Z,0.00
2023-01-08T05:05:36.642Z,0.00
2023-01-08T05:06:36.574Z,0.00
2023-01-08T05:07:36.631Z,0.00
2023-01-08T05:08:36.599Z,0.00
2023-01-08T05:09:36.600Z,0.00
2023-01-08T05:10:36.604Z,0.00
2023-01-08T05:11:36.546Z,0.00
2023-01-08T05:12:36.496Z,0.00
2023-01-08T05:13:36.568Z,0.00
2023-01-08T05:14:36.494Z,0.00
2023-01-08T05:15:36.569Z,0.00
2023-01-08T05:16:36.521Z,0.00
2023-01-08T05:17:36.448Z,0.00
2023-01-08T05:18:37.168Z,0.00
2023-01-08T05:19:38.252Z,0.00
2023-01-08T05:20:36.398Z,0.00
2023-01-08T05:21:36.426Z,0.00
2023-01-08T05:22:36.434Z,0.00
2023-01-08T05:23:36.378Z,0.00
2023-01-08T05:24:36.351Z,0.00
2023-01-08T05:25:36.346Z,7.00
2023-01-08T05:26:36.318Z,7.00
2023-01-08T05:27:36.356Z,0.00
2023-01-08T05:28:36.415Z,0.00
2023-01-08T05:29:36.339Z,0.00
2023-01-08T05:30:36.302Z,0.00
2023-01-08T05:31:36.275Z,0.00
2023-01-08T05:32:36.268Z,0.00
2023-01-08T05:33:36.251Z,0.00
2023-01-08T05:34:36.245Z,0.00
2023-01-08T05:35:36.273Z,0.00
2023-01-08T05:36:36.165Z,0.00
2023-01-08T05:37:36.211Z,0.00
2023-01-08T05:38:36.188Z,0.00
2023-01-08T05:39:36.173Z,0.00
2023-01-08T05:40:36.259Z,0.00
2023-01-08T05:41:36.119Z,0.00
2023-01-08T05:42:36.095Z,0.00
2023-01-08T05:43:36.133Z,0.00
2023-01-08T05:44:36.089Z,0.00
2023-01-08T05:45:36.075Z,0.00
2023-01-08T05:46:36.150Z,0.00
2023-01-08T05:47:36.065Z,0.00
2023-01-08T05:48:36.052Z,0.00
2023-01-08T05:49:36.045Z,0.00
2023-01-08T05:50:36.043Z,0.00
2023-01-08T05:51:35.992Z,0.00
2023-01-08T05:52:36.029Z,0.00
2023-01-08T05:53:35.981Z,0.00
2023-01-08T05:54:35.929Z,0.00
2023-01-08T05:55:35.971Z,0.00
2023-01-08T05:56:35.903Z,0.00
2023-01-08T05:57:35.922Z,0.00
2023-01-08T05:58:35.915Z,0.00
2023-01-08T05:59:35.878Z,0.00
2023-01-08T06:00:35.831Z,0.00
2023-01-08T06:01:36.070Z,0.00
2023-01-08T06:02:35.939Z,0.00
2023-01-08T06:03:35.817Z,0.00
2023-01-08T06:04:35.984Z,0.00
2023-01-08T06:05:35.815Z,0.00
2023-01-08T06:06:35.765Z,0.00
2023-01-08T06:07:35.781Z,0.00
2023-01-08T06:08:35.755Z,0.00
2023-01-08T06:09:35.761Z,0.00
2023-01-08T06:10:36.014Z,0.00
2023-01-08T06:11:35.710Z,0.00
2023-01-08T06:12:35.703Z,0.00
2023-01-08T06:13:35.717Z,0.00
2023-01-08T06:14:35.638Z,0.00
2023-01-08T06:15:35.703Z,0.00
2023-01-08T06:16:35.676Z,0.00
2023-01-08T06:17:35.646Z,0.00
2023-01-08T06:18:35.593Z,0.00
2023-01-08T06:19:35.637Z,0.00
2023-01-08T06:20:35.545Z,0.00
2023-01-08T06:21:35.623Z,0.00
2023-01-08T06:22:35.650Z,0.00
2023-01-08T06:23:35.552Z,0.00
2023-01-08T06:24:35.556Z,0.00
2023-01-08T06:25:35.554Z,0.00
2023-01-08T06:28:21.709Z,0.00
2023-01-08T06:28:46.486Z,0.00
2023-01-08T06:29:46.523Z,0.00
2023-01-08T06:30:46.481Z,0.00
2023-01-08T06:31:46.510Z,0.00
2023-01-08T06:32:46.473Z,0.00
2023-01-08T06:33:46.427Z,0.00
2023-01-08T06:34:46.403Z,0.00
2023-01-08T06:35:46.446Z,0.00
2023-01-08T06:36:46.429Z,0.00
2023-01-08T06:37:46.381Z,0.00
2023-01-08T06:38:46.403Z,0.00
2023-01-08T06:39:46.455Z,0.00
2023-01-08T06:40:46.359Z,0.00
2023-01-08T06:41:46.332Z,0.00
2023-01-08T06:42:46.344Z,0.00
2023-01-08T06:43:46.275Z,0.00
2023-01-08T06:44:46.376Z,0.00
2023-01-08T06:45:46.369Z,0.00
2023-01-08T06:46:46.286Z,0.00
2023-01-08T06:47:46.235Z,0.00
2023-01-08T06:48:46.233Z,0.00
2023-01-08T06:49:46.221Z,0.00
2023-01-08T06:50:46.209Z,0.00
2023-01-08T06:51:46.283Z,0.00
2023-01-08T06:52:46.188Z,0.00
2023-01-08T06:53:46.135Z,0.00
2023-01-08T06:54:46.129Z,0.00
2023-01-08T06:55:46.133Z,0.00
2023-01-08T06:56:53.719Z,0.00
2023-01-08T06:57:47.164Z,0.00
2023-01-08T06:58:46.111Z,0.00
2023-01-08T06:59:46.106Z,0.00
2023-01-08T07:00:46.037Z,0.00
2023-01-08T07:01:46.194Z,0.00
2023-01-08T07:02:46.164Z,1.00
2023-01-08T07:03:46.242Z,1.00
2023-01-08T07:04:46.020Z,1.00
2023-01-08T07:05:45.990Z,1.00
2023-01-08T07:06:45.950Z,0.00
2023-01-08T07:07:45.982Z,2.00
2023-01-08T07:08:45.915Z,2.00
2023-01-08T07:09:46.002Z,4.00
2023-01-08T07:10:45.940Z,4.00
2023-01-08T07:11:45.901Z,2.00
2023-01-08T07:12:45.898Z,10.00
2023-01-08T07:13:45.915Z,13.00
2023-01-08T07:14:45.894Z,15.00
2023-01-08T07:15:45.959Z,13.00
2023-01-08T07:16:45.848Z,16.00
2023-01-08T07:17:45.852Z,22.00
2023-01-08T07:18:45.787Z,14.00
2023-01-08T07:19:45.822Z,18.00
2023-01-08T07:20:45.759Z,18.00
2023-01-08T07:21:45.925Z,18.00
2023-01-08T07:22:45.777Z,26.00
2023-01-08T07:23:45.759Z,20.00
2023-01-08T07:24:45.721Z,22.00
2023-01-08T07:25:45.731Z,16.00
2023-01-08T07:26:45.683Z,11.00
2023-01-08T07:27:45.839Z,11.00
2023-01-08T07:28:45.698Z,16.00
2023-01-08T07:29:45.682Z,23.00
2023-01-08T07:30:45.652Z,18.00
2023-01-08T07:31:45.724Z,34.00
2023-01-08T07:32:45.604Z,43.00
2023-01-08T07:33:45.782Z,52.00
2023-01-08T07:34:45.612Z,60.00
2023-01-08T07:35:45.608Z,73.00
2023-01-08T07:36:45.571Z,82.00
2023-01-08T07:37:45.566Z,68.00
2023-01-08T07:38:45.545Z,58.00
2023-01-08T07:39:45.575Z,63.00
2023-01-08T07:40:45.501Z,66.00
2023-01-08T07:41:45.548Z,73.00
2023-01-08T07:42:45.494Z,82.00
2023-01-08T07:43:45.487Z,104.00
2023-01-08T07:44:45.448Z,131.00
2023-01-08T07:45:45.513Z,144.00
2023-01-08T07:46:45.467Z,149.00
2023-01-08T07:47:45.424Z,160.00
2023-01-08T07:48:45.458Z,200.00
2023-01-08T07:49:45.392Z,232.00
2023-01-08T07:50:45.354Z,269.00
2023-01-08T07:51:45.425Z,320.00
2023-01-08T07:52:45.360Z,382.00
2023-01-08T07:53:45.366Z,422.00
2023-01-08T07:54:46.067Z,474.00
2023-01-08T07:55:45.309Z,497.00
2023-01-08T07:56:45.309Z,511.00
2023-01-08T07:57:45.337Z,530.00
2023-01-08T07:58:45.252Z,565.00
2023-01-08T07:59:45.290Z,596.00
2023-01-08T08:00:45.233Z,623.00
2023-01-08T08:01:45.378Z,635.00
2023-01-08T08:02:45.391Z,646.00
2023-01-08T08:03:45.281Z,687.00
2023-01-08T08:04:45.590Z,721.00
2023-01-08T08:05:45.184Z,728.00
2023-01-08T08:06:45.163Z,732.00
2023-01-08T08:07:45.187Z,706.00
2023-01-08T08:08:45.126Z,665.00
2023-01-08T08:09:45.322Z,608.00
2023-01-08T08:10:45.141Z,549.00
2023-01-08T08:11:45.108Z,492.00
2023-01-08T08:12:45.092Z,457.00
2023-01-08T08:13:45.125Z,451.00
2023-01-08T08:14:45.070Z,455.00
2023-01-08T08:15:45.159Z,468.00
2023-01-08T08:16:45.033Z,452.00
2023-01-08T08:17:45.026Z,464.00
2023-01-08T08:18:44.994Z,513.00
2023-01-08T08:19:45.040Z,563.00
2023-01-08T08:20:44.957Z,572.00
2023-01-08T08:21:45.023Z,548.00
2023-01-08T08:22:44.969Z,597.00
2023-01-08T08:23:44.960Z,612.00
2023-01-08T08:24:44.937Z,597.00
2023-01-08T08:25:44.920Z,500.00
2023-01-08T08:26:44.910Z,423.00
2023-01-08T08:27:45.044Z,513.00
2023-01-08T08:28:44.848Z,522.00
2023-01-08T08:29:44.909Z,456.00
2023-01-08T08:30:44.853Z,412.00
2023-01-08T08:31:44.832Z,442.00
2023-01-08T08:32:44.834Z,470.00
2023-01-08T08:33:44.857Z,505.00
2023-01-08T08:34:44.788Z,516.00
2023-01-08T08:35:44.783Z,459.00
2023-01-08T08:36:44.770Z,440.00
2023-01-08T08:37:44.747Z,450.00
2023-01-08T08:38:44.736Z,467.00
2023-01-08T08:39:44.779Z,491.00
2023-01-08T08:40:44.681Z,508.00
2023-01-08T08:41:44.757Z,470.00
2023-01-08T08:42:44.722Z,475.00
2023-01-08T08:43:44.674Z,367.00
2023-01-08T08:44:44.665Z,263.00
2023-01-08T08:45:44.687Z,271.00
2023-01-08T08:46:44.637Z,364.00
2023-01-08T08:47:44.654Z,458.00
2023-01-08T08:48:44.612Z,544.00
2023-01-08T08:49:44.600Z,563.00
2023-01-08T08:50:44.546Z,613.00
2023-01-08T08:51:44.713Z,628.00
2023-01-08T08:52:44.528Z,654.00
2023-01-08T08:53:44.564Z,763.00
2023-01-08T08:54:44.541Z,852.00
2023-01-08T08:55:44.515Z,874.00
2023-01-08T08:56:44.493Z,842.00
2023-01-08T08:57:44.495Z,789.00
2023-01-08T08:58:44.481Z,770.00
2023-01-08T08:59:44.480Z,839.00
2023-01-08T09:00:44.475Z,977.00
2023-01-08T09:01:44.614Z,1163.00
2023-01-08T09:02:44.487Z,1447.00
2023-01-08T09:03:44.426Z,1767.00
2023-01-08T09:04:44.416Z,2052.00
2023-01-08T09:05:44.392Z,2233.00
2023-01-08T09:06:44.368Z,2289.00
2023-01-08T09:07:44.388Z,2057.00
2023-01-08T09:08:44.315Z,1829.00
2023-01-08T09:09:44.401Z,1732.00
2023-01-08T09:10:44.327Z,1592.00
2023-01-08T09:11:44.302Z,1500.00
2023-01-08T09:12:44.285Z,1405.00
2023-01-08T09:13:44.271Z,1326.00
2023-01-08T09:14:44.234Z,1358.00
2023-01-08T09:15:44.381Z,1483.00
2023-01-08T09:16:44.205Z,1517.00
2023-01-08T09:17:44.250Z,1463.00
2023-01-08T09:18:44.201Z,1406.00
2023-01-08T09:19:44.175Z,1450.00
2023-01-08T09:20:44.172Z,1594.00
2023-01-08T09:21:44.213Z,1797.00
2023-01-08T09:22:44.171Z,2005.00
2023-01-08T09:23:44.140Z,2166.00
2023-01-08T09:24:44.288Z,2305.00
2023-01-08T09:25:44.107Z,2405.00
2023-01-08T09:26:44.079Z,2461.00
2023-01-08T09:27:44.151Z,2471.00
2023-01-08T09:28:44.047Z,2492.00
2023-01-08T09:29:44.083Z,2441.00
2023-01-08T09:30:44.053Z,2379.00
2023-01-08T09:31:44.127Z,2317.00
2023-01-08T09:32:44.014Z,2309.00
2023-01-08T09:33:44.033Z,2280.00
2023-01-08T09:34:43.958Z,2247.00
2023-01-08T09:35:44.364Z,2273.00
2023-01-08T09:36:43.955Z,2214.00
2023-01-08T09:37:43.967Z,2030.00
2023-01-08T09:38:43.941Z,1776.00
2023-01-08T09:39:48.050Z,1609.00
2023-01-08T09:40:43.909Z,1467.00
2023-01-08T09:41:43.928Z,1434.00
2023-01-08T09:42:43.890Z,1581.00
2023-01-08T09:43:43.904Z,1725.00
2023-01-08T09:44:43.855Z,1899.00
2023-01-08T09:45:43.891Z,2050.00
2023-01-08T09:46:43.836Z,2193.00
2023-01-08T09:47:43.838Z,2336.00
2023-01-08T09:48:43.771Z,2665.00
2023-01-08T09:49:43.825Z,2849.00
2023-01-08T09:50:43.775Z,2971.00
2023-01-08T09:51:43.812Z,3194.00
2023-01-08T09:52:44.002Z,3437.00
2023-01-08T09:53:43.776Z,3502.00
2023-01-08T09:54:43.720Z,3507.00
2023-01-08T09:55:43.727Z,3484.00
2023-01-08T09:56:43.719Z,3637.00
2023-01-08T09:57:43.732Z,3835.00
2023-01-08T09:58:43.665Z,4003.00
2023-01-08T09:59:43.688Z,4163.00
2023-01-08T10:00:43.786Z,4262.00
2023-01-08T10:01:43.722Z,4321.00
2023-01-08T10:02:43.664Z,4422.00
2023-01-08T10:03:43.717Z,4443.00
2023-01-08T10:04:43.583Z,4450.00
2023-01-08T10:05:43.567Z,4395.00
2023-01-08T10:06:43.544Z,4484.00
2023-01-08T10:07:43.566Z,4743.00
2023-01-08T10:08:43.501Z,5062.00
2023-01-08T10:09:43.657Z,5183.00
2023-01-08T10:10:43.495Z,5208.00
2023-01-08T10:11:43.500Z,5081.00
2023-01-08T10:12:43.472Z,4896.00
2023-01-08T10:13:43.461Z,4785.00
2023-01-08T10:14:43.419Z,4574.00
2023-01-08T10:15:43.478Z,4436.00
2023-01-08T10:16:43.376Z,4190.00
2023-01-08T10:17:43.434Z,4068.00
2023-01-08T10:18:43.395Z,3754.00
2023-01-08T10:19:43.370Z,3494.00
2023-01-08T10:20:43.377Z,3391.00
2023-01-08T10:21:43.389Z,3339.00
2023-01-08T10:22:43.291Z,3308.00
2023-01-08T10:23:43.345Z,3284.00
2023-01-08T10:24:43.317Z,3269.00
2023-01-08T10:25:43.304Z,3258.00
2023-01-08T10:26:43.266Z,3248.00
2023-01-08T10:27:43.420Z,3236.00
2023-01-08T10:28:43.213Z,3229.00
2023-01-08T10:29:43.278Z,3223.00
2023-01-08T10:30:43.232Z,3217.00
2023-01-08T10:31:43.277Z,3220.00
2023-01-08T10:32:43.185Z,3216.00
2023-01-08T10:33:43.315Z,3214.00
2023-01-08T10:34:43.173Z,3217.00
2023-01-08T10:35:43.179Z,3218.00
2023-01-08T10:36:43.131Z,3219.00
2023-01-08T10:37:43.162Z,3207.00
2023-01-08T10:38:43.132Z,3203.00
2023-01-08T10:39:43.212Z,3205.00
2023-01-08T10:40:43.068Z,3209.00
2023-01-08T10:41:43.111Z,3214.00
2023-01-08T10:42:43.077Z,3228.00
2023-01-08T10:43:43.060Z,3234.00
2023-01-08T10:44:43.026Z,3245.00
2023-01-08T10:45:43.177Z,3259.00
2023-01-08T10:46:42.985Z,3276.00
2023-01-08T10:47:43.715Z,3292.00
2023-01-08T10:48:42.939Z,3303.00
2023-01-08T10:49:43.005Z,3319.00
2023-01-08T10:50:42.963Z,3333.00
2023-01-08T10:51:42.961Z,3350.00
2023-01-08T10:52:42.969Z,3367.00
2023-01-08T10:53:42.931Z,3378.00
2023-01-08T10:54:42.868Z,3389.00
2023-01-08T10:55:42.911Z,3403.00
2023-01-08T10:56:42.879Z,3417.00
2023-01-08T10:57:42.917Z,3429.00
2023-01-08T10:58:42.849Z,3436.00
2023-01-08T10:59:42.907Z,3448.00
2023-01-08T11:00:42.814Z,3458.00
2023-01-08T11:01:43.071Z,3466.00
2023-01-08T11:02:42.813Z,3473.00
2023-01-08T11:03:42.827Z,3480.00
2023-01-08T11:04:42.754Z,3485.00
2023-01-08T11:05:42.760Z,3492.00
2023-01-08T11:06:42.695Z,3500.00
2023-01-08T11:07:42.761Z,3503.00
2023-01-08T11:08:42.680Z,3511.00
2023-01-08T11:09:42.761Z,3516.00
2023-01-08T11:10:42.677Z,3523.00
2023-01-08T11:11:42.658Z,3533.00
2023-01-08T11:12:42.692Z,3552.00
2023-01-08T11:13:42.622Z,3563.00
2023-01-08T11:14:42.624Z,3574.00
2023-01-08T11:15:42.743Z,3584.00
2023-01-08T11:16:42.655Z,3601.00
2023-01-08T11:17:42.575Z,3620.00
2023-01-08T11:18:42.593Z,3637.00
2023-01-08T11:19:42.528Z,3657.00
2023-01-08T11:20:42.581Z,3675.00
2023-01-08T11:21:42.536Z,3684.00
2023-01-08T11:22:42.530Z,3696.00
2023-01-08T11:23:42.525Z,3701.00
2023-01-08T11:24:42.509Z,3709.00
2023-01-08T11:25:42.496Z,3721.00
2023-01-08T11:26:42.495Z,3727.00
2023-01-08T11:27:42.566Z,3735.00
2023-01-08T11:28:42.446Z,3754.00
2023-01-08T11:29:42.443Z,3758.00
2023-01-08T11:30:42.429Z,3766.00
2023-01-08T11:31:42.420Z,3770.00
2023-01-08T11:32:42.416Z,3770.00
2023-01-08T11:33:42.377Z,3762.00
2023-01-08T11:34:42.360Z,3766.00
2023-01-08T11:35:42.346Z,3775.00
2023-01-08T11:36:42.342Z,3785.00
2023-01-08T11:37:42.314Z,3802.00
2023-01-08T11:38:42.333Z,3811.00
2023-01-08T11:39:42.305Z,3823.00
2023-01-08T11:40:42.313Z,3840.00
2023-01-08T11:41:42.246Z,3850.00
2023-01-08T11:42:42.253Z,3861.00
2023-01-08T11:43:42.237Z,3877.00
2023-01-08T11:44:42.253Z,3884.00
2023-01-08T11:45:42.277Z,3888.00
2023-01-08T11:46:42.213Z,3895.00
2023-01-08T11:47:42.196Z,3912.00
2023-01-08T11:48:42.188Z,3929.00
2023-01-08T11:49:42.158Z,3950.00
2023-01-08T11:50:42.186Z,3984.00
2023-01-08T11:51:42.129Z,4018.00
2023-01-08T11:52:42.145Z,4044.00
2023-01-08T11:53:42.087Z,4062.00
2023-01-08T11:54:42.090Z,4093.00
2023-01-08T11:55:42.066Z,4111.00
2023-01-08T11:56:42.070Z,4131.00
2023-01-08T11:57:42.079Z,4147.00
2023-01-08T11:58:42.047Z,4162.00
2023-01-08T11:59:41.991Z,4169.00
2023-01-08T12:00:42.019Z,4186.00
2023-01-08T12:01:42.173Z,4190.00
2023-01-08T12:02:42.012Z,4212.00
2023-01-08T12:03:41.961Z,4241.00
2023-01-08T12:04:41.989Z,4261.00
2023-01-08T12:05:41.914Z,4289.00
2023-01-08T12:06:41.951Z,4312.00
2023-01-08T12:07:41.938Z,4347.00
2023-01-08T12:08:41.907Z,4379.00
2023-01-08T12:09:42.000Z,4392.00
2023-01-08T12:10:41.905Z,4426.00
2023-01-08T12:11:41.843Z,4445.00
2023-01-08T12:12:41.892Z,4477.00
2023-01-08T12:13:41.816Z,4504.00
2023-01-08T12:14:41.829Z,4543.00
2023-01-08T12:15:41.836Z,4587.00
2023-01-08T12:16:41.883Z,4619.00
2023-01-08T12:17:41.782Z,4670.00
2023-01-08T12:18:41.792Z,4699.00
2023-01-08T12:19:41.773Z,4752.00
2023-01-08T12:20:41.773Z,4790.00
2023-01-08T12:21:41.814Z,4852.00
2023-01-08T12:22:41.727Z,4894.00
2023-01-08T12:23:41.694Z,4952.00
2023-01-08T12:24:41.689Z,5003.00
2023-01-08T12:25:41.675Z,5100.00
2023-01-08T12:26:41.677Z,5245.00
2023-01-08T12:27:56.398Z,5392.00
2023-01-08T12:28:42.665Z,5449.00
2023-01-08T12:29:41.589Z,5469.00
2023-01-08T12:30:41.612Z,5527.00
2023-01-08T12:31:44.305Z,5659.00
2023-01-08T12:32:41.634Z,5775.00
2023-01-08T12:33:41.656Z,5828.00
2023-01-08T12:34:41.521Z,5853.00
2023-01-08T12:35:41.551Z,5812.00
2023-01-08T12:36:41.537Z,5771.00
2023-01-08T12:37:41.500Z,5707.00
2023-01-08T12:38:41.529Z,5664.00
2023-01-08T12:39:41.553Z,5614.00
2023-01-08T12:40:41.519Z,5565.00
2023-01-08T12:41:41.445Z,5518.00
2023-01-08T12:42:46.764Z,5500.00
2023-01-08T12:43:42.416Z,5520.00
2023-01-08T12:44:41.426Z,5537.00
2023-01-08T12:45:41.546Z,5540.00
2023-01-08T12:46:41.420Z,5548.00
2023-01-08T12:47:41.339Z,5356.00
2023-01-08T12:48:41.369Z,5459.00
2023-01-08T12:49:41.363Z,5470.00
2023-01-08T12:50:41.384Z,5542.00